Time;durP1;ratioP1;P1;durP2;ratioP2;P2;SDS_P1;SDS_P2;PMS_P1;PMS_P2;Temp;Humidity;BMP_temperature;BMP_pressure;BME280_temperature;BME280_humidity;BME280_pressure;Samples;Min_cycle;Max_cycle;Signal;HPM_P1;HPM_P2
2024/04/17 00:02:28;;;;;;;1.50;0.80;;;20.40;61.80;;;;;;5350589;26;20766;-91
2024/04/17 00:04:54;;;;;;;1.60;0.80;;;20.30;61.70;;;;;;5350087;26;20445;-93
2024/04/17 00:07:22;;;;;;;1.77;0.90;;;20.40;61.80;;;;;;5349910;26;20504;-92
2024/04/17 00:09:48;;;;;;;1.77;0.70;;;20.40;61.80;;;;;;5350382;26;20473;-91
2024/04/17 00:12:16;;;;;;;1.70;0.73;;;20.40;61.80;;;;;;5350139;26;20834;-92
2024/04/17 00:14:42;;;;;;;2.80;0.80;;;20.40;61.80;;;;;;5349629;26;20261;-91
2024/04/17 00:17:11;;;;;;;1.50;0.80;;;20.40;61.80;;;;;;5349338;26;20800;-91
2024/04/17 00:19:39;;;;;;;1.67;0.97;;;20.40;61.80;;;;;;5349800;26;20492;-91
2024/04/17 00:22:08;;;;;;;1.60;0.90;;;20.40;61.80;;;;;;5350164;26;20461;-90
2024/04/17 00:24:34;;;;;;;1.50;0.80;;;20.40;61.80;;;;;;5350322;26;20492;-93
2024/04/17 00:27:02;;;;;;;1.97;1.03;;;20.40;61.80;;;;;;5349581;26;20449;-90
2024/04/17 00:29:28;;;;;;;1.50;0.90;;;20.40;61.80;;;;;;5349651;26;20230;-92
2024/04/17 00:31:57;;;;;;;1.60;1.00;;;20.40;61.80;;;;;;5318975;26;20449;-91
2024/04/17 00:34:23;;;;;;;3.13;0.90;;;20.40;61.80;;;;;;5349511;26;20441;-90
2024/04/17 00:36:54;;;;;;;1.60;0.83;;;20.40;61.80;;;;;;5349472;26;20513;-92
2024/04/17 00:39:20;;;;;;;1.93;1.10;;;20.40;61.80;;;;;;5349442;26;20231;-91
2024/04/17 00:41:49;;;;;;;1.70;0.90;;;20.40;61.80;;;;;;5350038;26;20516;-91
2024/04/17 00:44:15;;;;;;;1.60;0.97;;;20.40;61.80;;;;;;5349351;26;20521;-91
2024/04/17 00:46:43;;;;;;;1.60;0.90;;;20.40;61.80;;;;;;5349528;26;20461;-91
2024/04/17 00:49:10;;;;;;;1.97;0.90;;;20.40;61.80;;;;;;5349818;26;21024;-92
2024/04/17 00:51:40;;;;;;;1.80;1.07;;;20.40;61.80;;;;;;5349063;26;20449;-92
2024/04/17 00:54:10;;;;;;;1.97;0.90;;;20.40;61.80;;;;;;5349387;26;20449;-91
2024/04/17 00:56:43;;;;;;;1.70;1.10;;;20.40;61.80;;;;;;5355082;26;20488;-91
2024/04/17 00:59:10;;;;;;;1.60;0.90;;;20.40;61.80;;;;;;5350017;26;20551;-92
2024/04/17 01:01:39;;;;;;;1.87;0.83;;;20.40;61.80;;;;;;5360631;26;20868;-91
2024/04/17 01:04:05;;;;;;;1.63;0.83;;;20.40;61.80;;;;;;5349891;26;20501;-92
2024/04/17 01:06:34;;;;;;;1.93;0.80;;;20.40;61.80;;;;;;5350041;26;20504;-92
2024/04/17 01:09:00;;;;;;;1.70;0.90;;;20.40;61.70;;;;;;5349535;26;20516;-92
2024/04/17 01:11:39;;;;;;;1.50;0.80;;;20.40;61.80;;;;;;5349898;26;20445;-92
2024/04/17 01:14:05;;;;;;;1.40;0.70;;;20.40;61.80;;;;;;5349383;26;20460;-92
2024/04/17 01:16:34;;;;;;;1.63;0.90;;;20.30;61.70;;;;;;5369438;26;20449;-91
2024/04/17 01:19:01;;;;;;;2.33;0.80;;;20.40;61.80;;;;;;5371208;26;20429;-90
2024/04/17 01:21:30;;;;;;;1.50;0.70;;;20.30;61.70;;;;;;5354081;26;20445;-91
2024/04/17 01:23:58;;;;;;;1.63;1.00;;;20.40;61.80;;;;;;5349051;26;20501;-92
2024/04/17 01:26:29;;;;;;;1.60;0.90;;;20.30;61.70;;;;;;5348849;26;20563;-91
2024/04/17 01:28:55;;;;;;;2.13;0.90;;;20.30;61.70;;;;;;5348745;26;20975;-91
2024/04/17 01:31:23;;;;;;;2.33;0.83;;;20.40;61.80;;;;;;5349349;26;20498;-92
2024/04/17 01:33:49;;;;;;;2.03;0.80;;;20.30;61.70;;;;;;5348872;26;20445;-91
2024/04/17 01:36:18;;;;;;;1.77;1.00;;;20.30;61.70;;;;;;5348380;26;20537;-91
2024/04/17 01:38:45;;;;;;;2.67;1.00;;;20.30;61.70;;;;;;5348582;26;20517;-91
2024/04/17 01:41:17;;;;;;;1.90;0.90;;;20.30;61.70;;;;;;5348728;26;20469;-91
2024/04/17 01:43:43;;;;;;;1.97;0.93;;;20.30;61.70;;;;;;5350513;26;20495;-93
2024/04/17 01:46:11;;;;;;;2.13;1.10;;;20.30;61.70;;;;;;5352197;26;20444;-91
2024/04/17 01:48:37;;;;;;;2.40;1.17;;;20.30;61.70;;;;;;5351645;26;20214;-91
2024/04/17 01:51:06;;;;;;;1.70;0.90;;;20.30;61.70;;;;;;5321739;26;20521;-93
2024/04/17 01:53:32;;;;;;;2.13;1.17;;;20.30;61.70;;;;;;5351789;26;20448;-91
2024/04/17 01:56:00;;;;;;;3.20;1.20;;;20.30;61.70;;;;;;5352061;26;21042;-91
2024/04/17 01:58:29;;;;;;;2.50;1.13;;;20.30;61.70;;;;;;5351847;26;20258;-91
2024/04/17 02:00:57;;;;;;;2.37;1.10;;;20.30;61.70;;;;;;5351703;26;20449;-91
2024/04/17 02:03:23;;;;;;;1.90;1.00;;;20.30;61.60;;;;;;5351464;26;20448;-92
2024/04/17 02:05:53;;;;;;;2.10;1.03;;;20.30;61.60;;;;;;5351649;26;20461;-93
2024/04/17 02:08:19;;;;;;;2.00;1.10;;;20.30;61.70;;;;;;5351776;26;20556;-93
2024/04/17 02:10:48;;;;;;;1.97;1.20;;;20.30;61.70;;;;;;5351973;26;20515;-93
2024/04/17 02:13:14;;;;;;;2.27;1.00;;;20.30;61.60;;;;;;5351581;26;20445;-92
2024/04/17 02:15:45;;;;;;;1.80;1.00;;;20.30;61.60;;;;;;5350812;26;20457;-91
2024/04/17 02:18:11;;;;;;;2.10;1.17;;;20.30;61.60;;;;;;5351567;26;20499;-93
2024/04/17 02:20:40;;;;;;;1.80;1.00;;;20.30;61.60;;;;;;5351812;26;20921;-92
2024/04/17 02:23:06;;;;;;;1.73;1.10;;;20.30;61.60;;;;;;5351740;26;20819;-92
2024/04/17 02:25:35;;;;;;;1.80;0.90;;;20.30;61.60;;;;;;5351537;26;20499;-91
2024/04/17 02:28:01;;;;;;;1.70;1.00;;;20.30;61.60;;;;;;5351399;26;20449;-91
2024/04/17 02:30:30;;;;;;;1.80;1.10;;;20.30;61.60;;;;;;5351206;26;20562;-92
2024/04/17 02:32:58;;;;;;;2.57;1.07;;;20.30;61.60;;;;;;5351086;26;20441;-92
2024/04/17 02:35:27;;;;;;;1.80;1.00;;;20.30;61.60;;;;;;5350784;26;20457;-91
2024/04/17 02:37:52;;;;;;;1.90;1.27;;;20.30;61.60;;;;;;5351226;26;20495;-91
2024/04/17 02:40:21;;;;;;;1.70;1.10;;;20.30;61.60;;;;;;5350949;26;20469;-91
2024/04/17 02:42:47;;;;;;;2.07;0.90;;;20.30;61.60;;;;;;5351743;26;20928;-91
2024/04/17 02:45:16;;;;;;;1.70;1.00;;;20.30;61.50;;;;;;5371319;26;20494;-91
2024/04/17 02:47:41;;;;;;;7.40;1.03;;;20.30;61.50;;;;;;5373290;26;20437;-92
2024/04/17 02:50:13;;;;;;;2.50;1.33;;;20.40;61.60;;;;;;5352073;26;20491;-91
2024/04/17 02:52:39;;;;;;;2.13;1.17;;;20.30;61.60;;;;;;5351445;26;20682;-91
2024/04/17 02:55:08;;;;;;;1.77;1.10;;;20.30;61.60;;;;;;5351188;26;20491;-91
2024/04/17 02:57:34;;;;;;;1.60;0.97;;;20.30;61.50;;;;;;5320248;26;20453;-92
2024/04/17 03:00:03;;;;;;;2.03;1.23;;;20.30;61.60;;;;;;5351177;26;20489;-92
2024/04/17 03:02:28;;;;;;;1.60;0.87;;;20.30;61.60;;;;;;5351585;26;20490;-91
2024/04/17 03:04:57;;;;;;;2.17;1.47;;;20.30;61.60;;;;;;5351618;26;20445;-91
2024/04/17 03:07:25;;;;;;;1.60;1.20;;;20.40;61.70;;;;;;5351339;26;20488;-93
2024/04/17 03:09:54;;;;;;;3.27;1.30;;;20.30;61.60;;;;;;5351174;26;20580;-91
2024/04/17 03:12:20;;;;;;;1.80;1.07;;;20.30;61.60;;;;;;5361506;26;20491;-91
2024/04/17 03:14:49;;;;;;;4.70;1.33;;;20.30;61.50;;;;;;5372866;26;20433;-91
2024/04/17 03:17:15;;;;;;;1.77;0.97;;;20.30;62.40;;;;;;5343801;26;20493;-91
2024/04/17 03:19:45;;;;;;;2.00;1.10;;;20.20;61.40;;;;;;5369805;26;20437;-92
2024/04/17 03:22:11;;;;;;;1.77;1.07;;;20.20;61.40;;;;;;5352499;26;20487;-91
2024/04/17 03:24:42;;;;;;;1.60;0.90;;;20.30;61.50;;;;;;5352386;26;20462;-91
2024/04/17 03:27:08;;;;;;;6.67;1.60;;;20.30;61.50;;;;;;5351513;26;20486;-91
2024/04/17 03:29:37;;;;;;;1.80;1.10;;;20.20;61.40;;;;;;5350812;26;20516;-92
2024/04/17 03:32:03;;;;;;;1.93;1.23;;;20.30;61.50;;;;;;5351439;26;20265;-91
2024/04/17 03:34:32;;;;;;;1.57;0.90;;;20.20;61.40;;;;;;5351035;26;20956;-91
2024/04/17 03:37:01;;;;;;;1.53;0.90;;;20.20;61.40;;;;;;5350513;26;20440;-91
2024/04/17 03:39:36;;;;;;;1.70;1.10;;;20.20;61.40;;;;;;5350154;26;20578;-91
2024/04/17 03:42:07;;;;;;;1.83;1.07;;;20.20;62.30;;;;;;5350394;26;20524;-91
2024/04/17 03:44:36;;;;;;;2.57;1.03;;;20.20;61.40;;;;;;5350260;26;20482;-91
2024/04/17 03:47:05;;;;;;;2.27;1.27;;;20.20;61.40;;;;;;5350373;26;20457;-92
2024/04/17 03:49:33;;;;;;;4.63;1.10;;;20.20;61.40;;;;;;5350218;26;20449;-91
2024/04/17 03:51:59;;;;;;;1.53;1.00;;;20.20;61.40;;;;;;5350218;26;20460;-91
2024/04/17 03:54:28;;;;;;;2.37;1.40;;;20.20;61.40;;;;;;5350247;26;21019;-91
2024/04/17 03:56:54;;;;;;;2.83;1.00;;;20.20;61.40;;;;;;5350588;26;20218;-91
2024/04/17 03:59:25;;;;;;;1.97;0.90;;;20.20;61.40;;;;;;5350508;26;20509;-92
2024/04/17 04:01:51;;;;;;;1.97;1.10;;;20.20;61.40;;;;;;5351179;26;20233;-93
2024/04/17 04:04:20;;;;;;;2.13;1.10;;;20.20;61.30;;;;;;5350807;26;20457;-93
2024/04/17 04:06:48;;;;;;;2.40;1.10;;;20.20;61.30;;;;;;5349674;26;20491;-92
2024/04/17 04:09:16;;;;;;;1.77;1.07;;;20.20;61.30;;;;;;5349365;26;20481;-92
2024/04/17 04:11:42;;;;;;;1.70;1.10;;;20.20;61.30;;;;;;5350457;26;20551;-92
2024/04/17 04:14:10;;;;;;;1.73;1.03;;;20.20;61.30;;;;;;5353424;26;20457;-92
2024/04/17 04:16:39;;;;;;;1.70;0.90;;;20.20;61.30;;;;;;5371515;26;20453;-91
2024/04/17 04:19:08;;;;;;;2.20;1.00;;;20.20;61.30;;;;;;5370676;26;20446;-91
2024/04/17 04:21:34;;;;;;;1.70;0.90;;;20.20;61.30;;;;;;5349899;26;20555;-91
2024/04/17 04:24:02;;;;;;;2.13;1.00;;;20.20;61.30;;;;;;5350160;26;20457;-91
2024/04/17 04:26:28;;;;;;;1.83;1.13;;;20.20;61.30;;;;;;5349998;26;20449;-91
2024/04/17 04:28:57;;;;;;;3.17;1.10;;;20.20;61.30;;;;;;5350005;26;20497;-91
2024/04/17 04:31:23;;;;;;;2.00;1.20;;;20.20;61.30;;;;;;5350094;26;20493;-91
2024/04/17 04:33:55;;;;;;;1.60;0.90;;;20.20;61.30;;;;;;5319582;26;20516;-92
2024/04/17 04:36:21;;;;;;;2.53;1.00;;;20.20;61.30;;;;;;5350909;26;20494;-92
2024/04/17 04:38:49;;;;;;;1.97;1.00;;;20.20;61.30;;;;;;5349774;26;20460;-92
2024/04/17 04:41:15;;;;;;;2.23;1.07;;;20.20;61.30;;;;;;5350368;26;20460;-93
2024/04/17 04:43:44;;;;;;;1.90;1.20;;;20.20;61.30;;;;;;5335889;26;20501;-93
2024/04/17 04:46:10;;;;;;;2.07;1.17;;;20.20;61.30;;;;;;5353100;26;20486;-92
2024/04/17 04:48:39;;;;;;;2.87;1.17;;;20.20;61.30;;;;;;5350513;26;20449;-93
2024/04/17 04:51:08;;;;;;;2.20;1.23;;;20.20;61.30;;;;;;5352863;26;20584;-93
2024/04/17 04:53:36;;;;;;;2.13;1.10;;;20.20;61.30;;;;;;5351486;26;20569;-93
2024/04/17 04:56:03;;;;;;;1.87;1.00;;;20.20;61.30;;;;;;5351841;26;20453;-92
2024/04/17 04:58:34;;;;;;;1.80;0.90;;;20.20;61.20;;;;;;5352498;26;20445;-92
2024/04/17 05:01:00;;;;;;;1.93;1.00;;;20.20;61.20;;;;;;5350251;26;20445;-92
2024/04/17 05:03:28;;;;;;;1.60;0.90;;;20.30;61.30;;;;;;5349780;26;20530;-92
2024/04/17 05:05:54;;;;;;;2.20;1.10;;;20.20;61.20;;;;;;5349616;26;20256;-92
2024/04/17 05:08:27;;;;;;;3.13;1.17;;;20.20;61.20;;;;;;5349938;26;20457;-92
2024/04/17 05:10:53;;;;;;;1.80;0.90;;;20.20;61.20;;;;;;5349677;26;20947;-92
2024/04/17 05:13:21;;;;;;;1.53;0.83;;;20.20;61.20;;;;;;5349960;26;20483;-91
2024/04/17 05:15:48;;;;;;;2.03;1.17;;;20.20;61.20;;;;;;5350070;26;20495;-92
2024/04/17 05:18:17;;;;;;;1.80;1.20;;;20.20;61.20;;;;;;5348424;26;20846;-92
2024/04/17 05:20:43;;;;;;;1.93;1.10;;;20.20;61.20;;;;;;5349293;26;20983;-92
2024/04/17 05:23:12;;;;;;;2.37;1.13;;;20.20;61.20;;;;;;5349419;26;20500;-92
2024/04/17 05:25:40;;;;;;;2.23;1.07;;;20.20;61.20;;;;;;5349724;26;20493;-92
2024/04/17 05:28:09;;;;;;;2.53;1.20;;;20.20;61.20;;;;;;5348822;26;20449;-93
2024/04/17 05:30:35;;;;;;;3.03;1.00;;;20.20;61.20;;;;;;5349376;26;20992;-92
2024/04/17 05:33:04;;;;;;;1.50;1.00;;;20.20;61.20;;;;;;5349145;26;20457;-92
2024/04/17 05:35:30;;;;;;;1.90;0.90;;;20.20;61.20;;;;;;5349373;26;20453;-92
2024/04/17 05:37:58;;;;;;;1.83;1.00;;;20.20;61.20;;;;;;5349965;26;20855;-92
2024/04/17 05:40:24;;;;;;;2.13;1.07;;;20.30;62.20;;;;;;5349762;26;20971;-92
2024/04/17 05:42:57;;;;;;;1.70;1.00;;;20.20;61.20;;;;;;5355451;26;20414;-92
2024/04/17 05:45:23;;;;;;;1.60;0.90;;;20.20;61.20;;;;;;5370830;26;20528;-92
2024/04/17 05:47:51;;;;;;;2.80;1.40;;;20.20;61.20;;;;;;5364479;26;20480;-93
2024/04/17 05:50:18;;;;;;;2.67;1.10;;;20.20;61.10;;;;;;5348811;26;20445;-92
2024/04/17 05:52:46;;;;;;;2.20;1.10;;;20.20;61.20;;;;;;5349147;26;20457;-92
2024/04/17 05:55:15;;;;;;;1.70;1.10;;;20.20;61.20;;;;;;5348942;26;20437;-93
2024/04/17 05:57:41;;;;;;;2.00;1.20;;;20.10;61.00;;;;;;5334506;26;20438;-92
2024/04/17 06:00:14;;;;;;;1.80;0.97;;;20.20;61.20;;;;;;5348205;26;20507;-92
2024/04/17 06:02:40;;;;;;;2.03;1.23;;;20.20;61.20;;;;;;5348985;26;20449;-92
2024/04/17 06:05:10;;;;;;;2.10;1.10;;;20.20;61.20;;;;;;5348864;26;20453;-92
2024/04/17 06:07:38;;;;;;;1.90;1.10;;;20.20;61.10;;;;;;5348794;26;20964;-93
2024/04/17 06:10:08;;;;;;;2.87;1.30;;;20.30;61.30;;;;;;5349087;26;20453;-92
2024/04/17 06:12:34;;;;;;;1.87;0.90;;;20.20;61.20;;;;;;5348247;26;20825;-91
2024/04/17 06:15:02;;;;;;;2.20;1.10;;;20.20;61.20;;;;;;5348525;26;20455;-92
2024/04/17 06:17:31;;;;;;;1.60;0.87;;;20.20;61.10;;;;;;5348675;26;20785;-92
2024/04/17 06:20:00;;;;;;;1.60;1.00;;;20.20;61.20;;;;;;5347887;26;20860;-92
2024/04/17 06:22:28;;;;;;;1.87;0.93;;;20.30;61.30;;;;;;5350109;26;20924;-92
2024/04/17 06:24:54;;;;;;;1.83;1.00;;;20.20;61.10;;;;;;5318038;26;20461;-92
2024/04/17 06:27:23;;;;;;;2.30;0.90;;;20.20;61.10;;;;;;5348248;26;20488;-92
2024/04/17 06:29:49;;;;;;;2.13;1.27;;;20.30;61.20;;;;;;5350187;26;20226;-91
2024/04/17 06:32:18;;;;;;;1.77;1.10;;;20.20;62.00;;;;;;5352250;26;20505;-92
2024/04/17 06:34:46;;;;;;;1.90;0.90;;;20.20;61.20;;;;;;5353255;26;20521;-92
2024/04/17 06:37:15;;;;;;;1.83;1.03;;;20.20;61.20;;;;;;5354630;26;20595;-92
2024/04/17 06:39:41;;;;;;;1.90;0.90;;;20.20;61.20;;;;;;5352627;26;20853;-92
2024/04/17 06:42:09;;;;;;;2.73;1.00;;;20.20;61.10;;;;;;5350854;26;20481;-92
2024/04/17 06:44:35;;;;;;;1.70;0.83;;;20.20;61.20;;;;;;5353572;26;20253;-92
2024/04/17 06:47:05;;;;;;;2.63;1.23;;;20.20;61.20;;;;;;5321297;26;20893;-91
2024/04/17 06:49:31;;;;;;;1.67;0.90;;;20.20;61.10;;;;;;5351526;26;20956;-91
2024/04/17 06:52:02;;;;;;;2.00;1.00;;;20.20;61.10;;;;;;5352062;26;20799;-91
2024/04/17 06:54:28;;;;;;;2.10;1.03;;;20.20;61.10;;;;;;5351153;26;20448;-91
2024/04/17 06:56:56;;;;;;;3.13;1.70;;;20.20;61.10;;;;;;5351789;26;20823;-91
2024/04/17 06:59:22;;;;;;;1.73;1.07;;;20.20;61.10;;;;;;5351679;26;20441;-92
2024/04/17 07:01:51;;;;;;;1.80;0.97;;;20.20;61.10;;;;;;5352056;26;20493;-91
2024/04/17 07:04:17;;;;;;;1.90;0.90;;;20.20;61.10;;;;;;5321535;26;20507;-91
2024/04/17 07:06:46;;;;;;;1.80;1.00;;;20.20;61.10;;;;;;5351116;26;20441;-91
2024/04/17 07:09:14;;;;;;;2.10;1.10;;;20.10;61.00;;;;;;5351280;26;20968;-91
2024/04/17 07:11:43;;;;;;;2.00;1.13;;;20.30;61.30;;;;;;5351740;26;21032;-91
2024/04/17 07:14:09;;;;;;;1.50;0.90;;;20.20;61.20;;;;;;5328082;26;20528;-92
2024/04/17 07:16:38;;;;;;;3.37;1.00;;;20.20;61.20;;;;;;5372884;26;20479;-92
2024/04/17 07:19:04;;;;;;;1.80;1.17;;;20.20;61.20;;;;;;5367210;26;20492;-93
2024/04/17 07:21:32;;;;;;;2.03;1.10;;;20.20;61.10;;;;;;5350747;26;20457;-93
2024/04/17 07:23:58;;;;;;;2.20;1.10;;;20.10;61.00;;;;;;5351173;26;20785;-92
2024/04/17 07:26:29;;;;;;;2.20;1.00;;;20.20;61.20;;;;;;5351288;26;20453;-93
2024/04/17 07:28:56;;;;;;;1.80;1.10;;;20.20;61.20;;;;;;5350894;26;20968;-92
2024/04/17 07:31:25;;;;;;;1.77;1.07;;;20.30;61.30;;;;;;5351295;26;21024;-93
2024/04/17 07:33:51;;;;;;;1.80;1.03;;;20.10;61.00;;;;;;5350684;26;20852;-93
2024/04/17 07:36:20;;;;;;;1.80;1.00;;;20.20;61.20;;;;;;5320816;26;20461;-93
2024/04/17 07:38:46;;;;;;;1.60;0.90;;;20.20;61.20;;;;;;5350802;26;20465;-93
2024/04/17 07:41:15;;;;;;;2.40;1.10;;;20.20;61.20;;;;;;5349647;26;20507;-92
2024/04/17 07:43:43;;;;;;;1.90;1.10;;;20.20;61.20;;;;;;5350408;26;20441;-93
2024/04/17 07:46:12;;;;;;;1.80;1.00;;;20.10;61.10;;;;;;5350850;26;20517;-93
2024/04/17 07:48:38;;;;;;;1.90;1.00;;;20.10;61.10;;;;;;5351066;26;20445;-92
2024/04/17 07:51:07;;;;;;;2.87;1.30;;;20.20;61.20;;;;;;5351177;26;20776;-92
2024/04/17 07:53:33;;;;;;;2.30;1.30;;;20.20;61.20;;;;;;5350953;26;20496;-92
2024/04/17 07:56:01;;;;;;;1.80;1.10;;;20.20;61.20;;;;;;5350710;26;20449;-92
2024/04/17 07:58:27;;;;;;;1.90;1.00;;;20.10;61.00;;;;;;5350546;26;20441;-92
2024/04/17 08:00:59;;;;;;;2.97;1.07;;;20.20;61.20;;;;;;5350761;26;20464;-92
2024/04/17 08:03:25;;;;;;;1.60;0.80;;;20.10;61.10;;;;;;5350345;26;20445;-92
2024/04/17 08:05:54;;;;;;;1.50;0.93;;;20.20;61.20;;;;;;5350140;26;20446;-91
2024/04/17 08:08:20;;;;;;;1.50;0.97;;;20.10;61.90;;;;;;5350024;26;20520;-92
2024/04/17 08:10:48;;;;;;;1.80;1.10;;;20.10;61.10;;;;;;5350496;26;21072;-92
2024/04/17 08:13:15;;;;;;;2.97;1.10;;;20.10;61.10;;;;;;5350187;26;20492;-94
2024/04/17 08:15:44;;;;;;;3.30;1.27;;;20.10;61.10;;;;;;5350312;26;20441;-92
2024/04/17 08:18:13;;;;;;;1.90;0.87;;;20.10;61.10;;;;;;5350441;26;20484;-93
2024/04/17 08:20:41;;;;;;;2.10;1.00;;;20.20;61.20;;;;;;5370825;26;20527;-92
2024/04/17 08:23:07;;;;;;;1.83;1.00;;;20.10;61.10;;;;;;5372107;26;20453;-92
2024/04/17 08:25:36;;;;;;;1.50;0.87;;;20.10;61.10;;;;;;5372073;26;20496;-92
2024/04/17 08:28:02;;;;;;;1.70;0.90;;;20.10;61.10;;;;;;5361952;26;20508;-92
2024/04/17 08:30:31;;;;;;;1.73;1.07;;;20.10;61.10;;;;;;5351115;26;20465;-92
2024/04/17 08:32:57;;;;;;;1.60;0.90;;;20.10;61.10;;;;;;5350890;26;20556;-92
2024/04/17 08:35:29;;;;;;;1.93;1.20;;;20.10;61.10;;;;;;5350194;26;20465;-92
2024/04/17 08:37:54;;;;;;;3.23;1.10;;;20.10;61.20;;;;;;5349689;26;20491;-91
2024/04/17 08:40:23;;;;;;;1.90;1.40;;;20.10;61.10;;;;;;5350902;26;20445;-91
2024/04/17 08:42:51;;;;;;;2.50;1.03;;;20.10;61.10;;;;;;5362517;26;20478;-92
2024/04/17 08:45:27;;;;;;;1.67;1.00;;;20.10;61.10;;;;;;5371742;26;20492;-92
2024/04/17 08:47:55;;;;;;;1.90;1.20;;;20.10;61.20;;;;;;5356752;26;20501;-92
2024/04/17 08:50:29;;;;;;;1.60;1.00;;;20.10;61.20;;;;;;5349420;26;20472;-92
2024/04/17 08:52:59;;;;;;;1.40;0.70;;;20.10;61.10;;;;;;5348971;26;20513;-92
2024/04/17 08:55:30;;;;;;;2.17;1.20;;;20.10;61.10;;;;;;5349596;26;20444;-91
2024/04/17 08:57:57;;;;;;;1.70;1.10;;;20.10;61.20;;;;;;5318830;26;20453;-92
2024/04/17 09:00:26;;;;;;;1.63;1.00;;;20.10;61.10;;;;;;5349610;26;20449;-91
2024/04/17 09:02:56;;;;;;;2.10;1.03;;;20.10;61.20;;;;;;5349740;26;20558;-91
2024/04/17 09:05:27;;;;;;;1.57;0.90;;;20.10;61.20;;;;;;5349490;26;20461;-92
2024/04/17 09:07:54;;;;;;;1.70;0.97;;;20.10;61.20;;;;;;5350007;26;20445;-91
2024/04/17 09:10:25;;;;;;;1.87;1.10;;;20.10;61.20;;;;;;5349217;26;20453;-92
2024/04/17 09:12:54;;;;;;;1.67;1.00;;;20.20;61.30;;;;;;5349126;26;20461;-91
2024/04/17 09:15:23;;;;;;;1.60;1.00;;;20.10;61.20;;;;;;5349548;26;20539;-91
2024/04/17 09:17:50;;;;;;;1.60;0.90;;;20.10;61.20;;;;;;5348925;26;20487;-92
2024/04/17 09:20:19;;;;;;;1.60;0.90;;;20.10;61.20;;;;;;5349095;26;20956;-92
2024/04/17 09:22:45;;;;;;;1.90;1.00;;;20.10;61.20;;;;;;5348954;26;20441;-91
2024/04/17 09:25:17;;;;;;;1.80;1.00;;;20.10;61.20;;;;;;5348631;26;20503;-91
2024/04/17 09:27:46;;;;;;;1.73;1.00;;;20.10;61.20;;;;;;5348728;26;20656;-91
2024/04/17 09:30:15;;;;;;;1.70;1.00;;;20.10;61.20;;;;;;5348171;26;20517;-91
2024/04/17 09:32:42;;;;;;;1.60;1.20;;;20.10;61.30;;;;;;5348070;26;20445;-92
2024/04/17 09:35:13;;;;;;;1.60;1.00;;;20.10;61.20;;;;;;5348656;26;20452;-91
2024/04/17 09:37:39;;;;;;;1.80;1.00;;;20.10;61.20;;;;;;5348695;26;20456;-91
2024/04/17 09:40:08;;;;;;;1.57;0.90;;;20.10;61.20;;;;;;5348373;26;20466;-91
2024/04/17 09:42:37;;;;;;;1.60;0.80;;;20.10;61.20;;;;;;5348386;26;20783;-92
2024/04/17 09:45:13;;;;;;;1.57;0.87;;;20.10;61.30;;;;;;5348678;26;20461;-92
2024/04/17 09:47:40;;;;;;;1.60;0.73;;;20.20;61.40;;;;;;5348866;26;20491;-92
2024/04/17 09:50:13;;;;;;;2.70;1.00;;;20.10;61.20;;;;;;5348403;26;20465;-93
2024/04/17 09:52:39;;;;;;;1.87;1.00;;;20.10;61.20;;;;;;5348579;26;20449;-92
2024/04/17 09:55:11;;;;;;;1.70;1.00;;;20.10;61.20;;;;;;5348289;26;20438;-92
2024/04/17 09:57:38;;;;;;;1.70;0.90;;;20.10;61.30;;;;;;5348481;26;20484;-92
2024/04/17 10:00:12;;;;;;;1.57;0.90;;;20.10;61.30;;;;;;5348312;26;20492;-92
2024/04/17 10:02:40;;;;;;;1.70;0.90;;;20.10;61.30;;;;;;5348376;26;20554;-93
2024/04/17 10:05:12;;;;;;;1.70;1.00;;;20.10;61.30;;;;;;5350079;26;20574;-92
2024/04/17 10:07:40;;;;;;;1.80;0.90;;;20.10;61.30;;;;;;5351107;26;20780;-92
2024/04/17 10:10:11;;;;;;;1.80;1.10;;;20.10;61.30;;;;;;5351158;26;20460;-92
2024/04/17 10:12:39;;;;;;;2.37;0.90;;;20.10;61.30;;;;;;5352951;26;20873;-93
2024/04/17 10:15:12;;;;;;;1.53;0.80;;;20.10;61.30;;;;;;5373828;26;20421;-92
2024/04/17 10:17:38;;;;;;;1.50;0.80;;;20.10;61.30;;;;;;5372581;26;20437;-92
2024/04/17 10:20:09;;;;;;;2.60;1.10;;;20.10;61.30;;;;;;5351449;26;20795;-92
2024/04/17 10:22:37;;;;;;;1.60;0.90;;;20.10;61.30;;;;;;5352078;26;20559;-92
2024/04/17 10:25:07;;;;;;;1.70;0.93;;;20.10;61.30;;;;;;5351786;26;20499;-91
2024/04/17 10:27:36;;;;;;;1.70;1.10;;;20.10;61.30;;;;;;5351146;26;20464;-92
2024/04/17 10:30:12;;;;;;;1.60;0.80;;;20.10;61.30;;;;;;5350983;26;20495;-90
2024/04/17 10:32:38;;;;;;;1.70;1.00;;;20.20;61.40;;;;;;5350716;26;20445;-90
2024/04/17 10:35:16;;;;;;;1.83;1.03;;;20.10;61.30;;;;;;5351034;26;20624;-91
2024/04/17 10:37:45;;;;;;;1.70;0.90;;;20.20;61.40;;;;;;5350890;26;20461;-91
2024/04/17 10:40:13;;;;;;;1.60;0.97;;;20.10;61.40;;;;;;5350991;26;20863;-92
2024/04/17 10:42:40;;;;;;;2.00;1.10;;;20.20;61.50;;;;;;5350782;26;20513;-91
2024/04/17 10:45:12;;;;;;;1.97;1.03;;;20.20;61.50;;;;;;5350758;26;20449;-91
2024/04/17 10:47:37;;;;;;;1.83;0.90;;;20.10;61.40;;;;;;5350964;26;20491;-92
2024/04/17 10:50:07;;;;;;;1.93;0.90;;;20.10;61.40;;;;;;5351117;26;20798;-92
2024/04/17 10:52:33;;;;;;;1.53;1.00;;;20.10;61.40;;;;;;5350988;26;21001;-92
2024/04/17 10:55:03;;;;;;;1.80;0.90;;;20.10;61.40;;;;;;5351632;26;20456;-91
2024/04/17 10:57:30;;;;;;;2.57;0.90;;;20.10;61.40;;;;;;5351509;26;20206;-91
2024/04/17 10:59:59;;;;;;;1.50;0.70;;;20.10;61.40;;;;;;5350684;26;20457;-91
2024/04/17 11:02:28;;;;;;;1.50;0.80;;;20.10;61.50;;;;;;5350847;26;20487;-91
2024/04/17 11:04:58;;;;;;;1.67;0.87;;;20.20;61.60;;;;;;5350667;26;20461;-92
2024/04/17 11:07:24;;;;;;;1.60;0.90;;;20.20;61.80;;;;;;5351394;26;20519;-92
2024/04/17 11:09:52;;;;;;;1.77;1.23;;;20.30;61.80;;;;;;5350693;26;20465;-91
2024/04/17 11:12:22;;;;;;;1.87;0.90;;;20.20;61.80;;;;;;5351192;26;20461;-91
2024/04/17 11:14:58;;;;;;;1.93;1.00;;;20.10;61.60;;;;;;5349736;26;20554;-93
2024/04/17 11:17:27;;;;;;;1.77;0.90;;;20.20;61.80;;;;;;5350305;26;20455;-91
2024/04/17 11:19:55;;;;;;;1.80;0.90;;;20.10;61.60;;;;;;5350541;26;20498;-92
2024/04/17 11:22:24;;;;;;;1.80;1.20;;;20.20;61.70;;;;;;5350355;26;20444;-91
2024/04/17 11:24:57;;;;;;;1.60;0.93;;;20.10;61.60;;;;;;5350442;26;20843;-92
2024/04/17 11:27:25;;;;;;;1.93;1.00;;;20.20;61.60;;;;;;5350937;26;20505;-91
2024/04/17 11:29:51;;;;;;;1.80;0.90;;;20.20;61.80;;;;;;5349964;26;20465;-90
2024/04/17 11:32:20;;;;;;;1.50;0.70;;;20.20;61.90;;;;;;5350714;26;20457;-91
2024/04/17 11:34:46;;;;;;;2.47;0.90;;;20.20;61.70;;;;;;5350218;26;20788;-91
2024/04/17 11:37:17;;;;;;;1.63;0.90;;;20.30;61.70;;;;;;5349926;26;20461;-90
2024/04/17 11:39:44;;;;;;;1.57;0.90;;;20.20;61.80;;;;;;5336836;26;20574;-90
2024/04/17 11:42:13;;;;;;;1.60;0.97;;;20.20;61.60;;;;;;5361794;26;20508;-92
2024/04/17 11:44:40;;;;;;;1.90;0.90;;;20.20;61.60;;;;;;5370620;26;20460;-90
2024/04/17 11:47:12;;;;;;;2.43;1.00;;;20.20;61.60;;;;;;5359336;26;20554;-91
2024/04/17 11:49:39;;;;;;;1.50;0.80;;;20.20;61.70;;;;;;5350005;26;20508;-91
2024/04/17 11:52:09;;;;;;;1.60;0.90;;;20.20;61.50;;;;;;5349930;26;20540;-90
2024/04/17 11:54:38;;;;;;;1.90;0.80;;;20.20;61.70;;;;;;5349771;26;20452;-91
2024/04/17 11:57:07;;;;;;;1.70;0.80;;;20.20;61.70;;;;;;5349800;26;20453;-90
2024/04/17 11:59:34;;;;;;;1.90;0.87;;;20.20;61.60;;;;;;5349842;26;21043;-90
2024/04/17 12:02:02;;;;;;;1.63;0.80;;;20.20;61.50;;;;;;5349795;26;20512;-91
2024/04/17 12:04:30;;;;;;;1.50;0.87;;;20.20;61.60;;;;;;5349624;26;20564;-91
2024/04/17 12:07:00;;;;;;;1.60;0.90;;;20.20;61.60;;;;;;5349656;26;20829;-90
2024/04/17 12:09:29;;;;;;;2.27;0.80;;;20.20;62.60;;;;;;5349991;26;21068;-90
2024/04/17 12:12:00;;;;;;;1.67;0.87;;;20.20;61.50;;;;;;5349752;26;20541;-91
2024/04/17 12:14:26;;;;;;;1.60;0.90;;;20.20;61.80;;;;;;5349712;26;20468;-90
2024/04/17 12:16:55;;;;;;;1.90;0.80;;;20.20;61.60;;;;;;5349410;26;20960;-91
2024/04/17 12:19:22;;;;;;;1.50;0.83;;;20.20;61.60;;;;;;5349794;26;20445;-91
2024/04/17 12:21:51;;;;;;;2.33;0.90;;;20.20;61.50;;;;;;5349491;26;20453;-92
2024/04/17 12:24:19;;;;;;;1.50;0.70;;;20.20;61.60;;;;;;5350332;26;20461;-91
2024/04/17 12:26:52;;;;;;;1.47;0.80;;;20.20;61.60;;;;;;5348676;26;20772;-91
2024/04/17 12:29:24;;;;;;;1.80;0.90;;;20.20;61.50;;;;;;5349543;26;20422;-92
2024/04/17 12:31:52;;;;;;;2.03;0.80;;;20.30;61.70;;;;;;5349380;26;20570;-91
2024/04/17 12:34:21;;;;;;;1.50;0.93;;;20.20;61.70;;;;;;5319732;26;20472;-91
2024/04/17 12:36:49;;;;;;;1.60;0.80;;;20.20;61.60;;;;;;5349498;26;20551;-91
2024/04/17 12:39:18;;;;;;;1.73;0.77;;;20.20;61.70;;;;;;5348705;26;20584;-90
2024/04/17 12:41:46;;;;;;;1.70;0.90;;;20.20;61.50;;;;;;5348650;26;21072;-90
2024/04/17 12:44:15;;;;;;;1.50;0.73;;;20.20;61.70;;;;;;5349376;26;21063;-90
2024/04/17 12:46:44;;;;;;;1.50;0.80;;;20.20;61.60;;;;;;5349140;26;20464;-90
2024/04/17 12:49:12;;;;;;;1.50;0.90;;;20.20;62.50;;;;;;5349262;26;20453;-90
2024/04/17 12:51:41;;;;;;;1.50;0.80;;;20.20;61.60;;;;;;5349076;26;20566;-91
2024/04/17 12:54:09;;;;;;;1.50;0.80;;;20.20;61.60;;;;;;5349126;26;20524;-91